createdAt,value
2018-08-23T00:00:47.069Z,99.90
2018-08-23T00:03:21.670Z,99.90
2018-08-23T00:05:54.733Z,99.90
2018-08-23T00:08:25.028Z,99.90
2018-08-23T00:13:21.440Z,99.90
2018-08-23T00:18:40.993Z,99.90
2018-08-23T00:21:15.379Z,99.90
2018-08-23T00:23:51.114Z,99.90
2018-08-23T00:26:20.527Z,99.90
2018-08-23T00:31:41.657Z,99.90
2018-08-23T00:36:48.384Z,99.90
2018-08-23T00:39:18.601Z,99.90
2018-08-23T00:44:29.590Z,99.90
2018-08-23T00:46:59.571Z,99.90
2018-08-23T00:49:33.144Z,99.90
2018-08-23T00:52:02.623Z,99.90
2018-08-23T00:54:32.241Z,99.90
2018-08-23T00:59:56.561Z,99.90
2018-08-23T01:02:25.980Z,99.90
2018-08-23T01:04:55.702Z,99.90
2018-08-23T01:07:28.753Z,99.90
2018-08-23T01:09:58.735Z,99.90
2018-08-23T01:12:29.155Z,99.90
2018-08-23T01:15:00.212Z,99.90
2018-08-23T01:17:29.341Z,99.90
2018-08-23T01:19:59.723Z,99.90
2018-08-23T01:25:09.192Z,99.90
2018-08-23T01:27:38.908Z,99.90
2018-08-23T01:30:08.689Z,99.90
2018-08-23T01:32:38.109Z,99.90
2018-08-23T01:35:09.621Z,99.90
2018-08-23T01:37:40.996Z,99.90
2018-08-23T01:40:11.571Z,99.90
2018-08-23T01:42:42.630Z,99.90
2018-08-23T01:45:11.801Z,99.90
2018-08-23T01:47:46.600Z,99.90
2018-08-23T01:50:15.853Z,99.90
2018-08-23T01:52:46.109Z,99.90
2018-08-23T01:55:16.940Z,99.90
2018-08-23T01:57:46.610Z,99.90
2018-08-23T02:00:21.172Z,99.90
2018-08-23T02:05:24.505Z,99.90
2018-08-23T02:07:54.002Z,99.90
2018-08-23T02:10:23.742Z,99.90
2018-08-23T02:12:56.983Z,99.90
2018-08-23T02:15:26.738Z,99.90
2018-08-23T02:17:57.811Z,99.90
2018-08-23T02:20:28.198Z,99.90
2018-08-23T02:22:57.985Z,99.90
2018-08-23T02:25:27.712Z,99.90
2018-08-23T02:30:42.609Z,99.90
2018-08-23T02:33:12.320Z,99.90
2018-08-23T02:35:48.986Z,99.90
2018-08-23T02:38:21.081Z,99.90
2018-08-23T02:40:50.893Z,99.90
2018-08-23T02:45:50.419Z,99.90
2018-08-23T02:48:20.856Z,99.90
2018-08-23T02:50:51.905Z,99.90
2018-08-23T02:53:32.354Z,99.90
2018-08-23T02:56:05.846Z,99.90
2018-08-23T02:58:43.207Z,99.90
2018-08-23T03:01:12.982Z,99.90
2018-08-23T03:03:52.660Z,99.90
2018-08-23T03:06:29.796Z,99.90
2018-08-23T03:08:58.906Z,99.90
2018-08-23T03:11:28.182Z,99.90
2018-08-23T03:13:57.982Z,99.90
2018-08-23T03:16:32.373Z,99.90
2018-08-23T03:19:01.818Z,99.90
2018-08-23T03:21:31.365Z,99.90
2018-08-23T03:24:01.295Z,99.90
2018-08-23T03:26:30.756Z,99.90
2018-08-23T03:28:59.872Z,99.90
2018-08-23T03:31:29.178Z,99.90
2018-08-23T03:33:58.435Z,99.90
2018-08-23T03:36:28.846Z,99.90
2018-08-23T03:38:58.594Z,99.90
2018-08-23T03:41:28.383Z,99.90
2018-08-23T03:43:57.479Z,99.90
2018-08-23T03:46:27.360Z,99.90
2018-08-23T03:49:03.870Z,99.90
2018-08-23T03:51:37.455Z,99.90
2018-08-23T03:54:06.637Z,99.90
2018-08-23T03:56:36.535Z,99.90
2018-08-23T03:59:05.963Z,99.90
2018-08-23T04:01:35.395Z,99.90
2018-08-23T04:04:04.819Z,99.90
2018-08-23T04:06:34.065Z,99.90
2018-08-23T04:09:03.381Z,99.90
2018-08-23T04:11:33.198Z,99.90
2018-08-23T04:14:02.905Z,99.90
2018-08-23T04:16:32.686Z,99.90
2018-08-23T04:19:02.120Z,99.90
2018-08-23T04:21:32.563Z,99.90
2018-08-23T04:24:01.643Z,99.90
2018-08-23T04:26:30.509Z,99.90
2018-08-23T04:28:59.880Z,99.90
2018-08-23T04:31:29.149Z,99.90
2018-08-23T04:33:58.571Z,99.90
2018-08-23T04:36:31.105Z,99.90
2018-08-23T04:39:05.649Z,99.90
2018-08-23T04:41:35.065Z,99.90
2018-08-23T04:44:18.634Z,99.90
2018-08-23T04:46:49.337Z,99.90
2018-08-23T04:49:18.123Z,99.90
2018-08-23T04:51:49.228Z,99.90
2018-08-23T04:54:19.559Z,99.90
2018-08-23T04:56:50.012Z,99.90
2018-08-23T04:59:20.352Z,99.90
2018-08-23T05:01:50.771Z,99.90
2018-08-23T05:04:20.335Z,99.90
2018-08-23T05:06:50.586Z,99.90
2018-08-23T05:09:20.471Z,99.90
2018-08-23T05:11:51.685Z,99.90
2018-08-23T05:14:20.960Z,99.90
2018-08-23T05:16:50.945Z,99.90
2018-08-23T05:19:21.639Z,99.90
2018-08-23T05:21:51.422Z,99.90
2018-08-23T05:24:23.698Z,99.90
2018-08-23T05:26:53.457Z,99.90
2018-08-23T05:29:22.931Z,99.90
2018-08-23T05:34:18.310Z,99.90
2018-08-23T05:36:48.162Z,99.90
2018-08-23T05:39:17.258Z,99.90
2018-08-23T05:44:37.609Z,99.90
2018-08-23T05:47:06.741Z,99.90
2018-08-23T05:49:36.375Z,99.90
2018-08-23T05:52:05.810Z,99.90
2018-08-23T05:54:36.225Z,99.90
2018-08-23T05:57:06.290Z,98.90
2018-08-23T05:59:36.045Z,99.70
2018-08-23T06:02:05.142Z,99.20
2018-08-23T06:04:40.034Z,98.00
2018-08-23T06:07:09.941Z,98.20
2018-08-23T06:09:41.459Z,97.90
2018-08-23T06:14:34.369Z,98.90
2018-08-23T06:17:04.054Z,97.20
2018-08-23T06:19:33.487Z,97.20
2018-08-23T06:22:01.999Z,96.50
2018-08-23T06:24:31.569Z,96.30
2018-08-23T06:27:01.795Z,95.80
2018-08-23T06:29:33.158Z,95.30
2018-08-23T06:32:10.295Z,95.30
2018-08-23T06:34:57.006Z,94.70
2018-08-23T06:37:26.858Z,94.50
2018-08-23T06:39:56.183Z,94.00
2018-08-23T06:42:41.952Z,93.80
2018-08-23T06:45:10.878Z,93.60
2018-08-23T06:47:43.069Z,93.60
2018-08-23T06:50:12.218Z,93.80
2018-08-23T06:52:47.722Z,94.30
2018-08-23T06:55:22.072Z,94.10
2018-08-23T06:57:55.989Z,94.10
2018-08-23T07:00:25.960Z,92.80
2018-08-23T07:02:55.703Z,92.30
2018-08-23T07:05:25.552Z,92.10
2018-08-23T07:07:54.915Z,91.70
2018-08-23T07:10:24.367Z,92.00
2018-08-23T07:12:56.646Z,91.60
2018-08-23T07:15:25.864Z,91.90
2018-08-23T07:17:54.377Z,91.40
2018-08-23T07:23:26.185Z,90.00
2018-08-23T07:25:54.998Z,88.90
2018-08-23T07:28:23.482Z,89.90
2018-08-23T07:30:53.928Z,89.80
2018-08-23T07:33:22.454Z,88.00
2018-08-23T07:36:01.519Z,87.60
2018-08-23T07:38:30.058Z,87.80
2018-08-23T07:40:58.362Z,87.30
2018-08-23T07:43:26.829Z,86.50
2018-08-23T07:45:55.301Z,85.70
2018-08-23T07:48:23.806Z,86.30
2018-08-23T07:50:52.309Z,84.60
2018-08-23T07:53:20.997Z,84.20
2018-08-23T07:55:49.917Z,82.30
2018-08-23T08:01:10.270Z,81.00
2018-08-23T08:03:38.868Z,80.70
2018-08-23T08:06:07.672Z,81.20
2018-08-23T08:08:36.668Z,79.60
2018-08-23T08:11:05.071Z,79.70
2018-08-23T08:13:33.557Z,79.80
2018-08-23T08:16:14.209Z,76.40
2018-08-23T08:18:42.714Z,77.60
2018-08-23T08:21:16.151Z,76.30
2018-08-23T08:23:46.076Z,76.10
2018-08-23T08:26:14.535Z,74.10
2018-08-23T08:28:43.040Z,74.70
2018-08-23T08:31:11.551Z,75.90
2018-08-23T08:33:40.651Z,75.40
2018-08-23T08:36:09.158Z,75.50
2018-08-23T08:38:37.751Z,79.50
2018-08-23T08:43:43.242Z,70.90
2018-08-23T08:46:12.147Z,71.00
2018-08-23T08:48:40.854Z,72.90
2018-08-23T08:51:26.952Z,70.00
2018-08-23T08:53:56.465Z,70.00
2018-08-23T08:56:28.619Z,70.50
2018-08-23T09:01:33.319Z,67.90
2018-08-23T09:04:02.235Z,67.00
2018-08-23T09:06:36.046Z,63.90
2018-08-23T09:09:12.314Z,62.30
2018-08-23T09:11:41.629Z,62.10
2018-08-23T09:14:10.229Z,61.30
2018-08-23T09:16:39.022Z,61.80
2018-08-23T09:19:07.314Z,57.40
2018-08-23T09:21:35.790Z,58.30
2018-08-23T09:24:21.291Z,59.40
2018-08-23T09:26:49.805Z,59.60
2018-08-23T09:29:30.362Z,59.50
2018-08-23T09:32:13.341Z,59.40
2018-08-23T09:34:42.703Z,60.50
2018-08-23T09:37:11.199Z,56.90
2018-08-23T09:39:40.301Z,57.00
2018-08-23T09:42:09.095Z,54.00
2018-08-23T09:44:51.314Z,54.60
2018-08-23T09:47:19.806Z,55.90
2018-08-23T09:49:50.421Z,55.40
2018-08-23T09:52:22.019Z,53.00
2018-08-23T09:54:50.747Z,53.80
2018-08-23T09:57:19.388Z,53.80
2018-08-23T09:59:52.619Z,56.00
2018-08-23T10:02:26.989Z,55.10
2018-08-23T10:06:01.390Z,56.30
2018-08-23T10:08:35.314Z,53.90
2018-08-23T10:11:09.230Z,56.20
2018-08-23T10:13:43.157Z,56.50
2018-08-23T10:16:17.081Z,54.30
2018-08-23T10:18:49.401Z,54.00
2018-08-23T10:21:18.198Z,55.10
2018-08-23T10:23:46.858Z,53.80
2018-08-23T10:26:29.433Z,54.50
2018-08-23T10:28:58.030Z,55.40
2018-08-23T10:31:26.927Z,54.90
2018-08-23T10:33:55.317Z,52.50
2018-08-23T10:36:23.793Z,51.10
2018-08-23T10:38:52.271Z,51.60
2018-08-23T10:41:20.773Z,54.20
2018-08-23T10:43:49.550Z,51.90
2018-08-23T10:49:11.160Z,49.80
2018-08-23T10:51:39.954Z,50.60
2018-08-23T10:54:08.439Z,50.50
2018-08-23T10:56:36.903Z,49.60
2018-08-23T10:59:05.442Z,50.10
2018-08-23T11:01:34.219Z,50.70
2018-08-23T11:04:05.586Z,50.20
2018-08-23T11:06:35.306Z,49.80
2018-08-23T11:09:09.550Z,48.40
2018-08-23T11:11:38.464Z,48.70
2018-08-23T11:14:13.023Z,48.90
2018-08-23T11:16:47.312Z,50.50
2018-08-23T11:19:21.440Z,50.00
2018-08-23T11:21:50.245Z,48.40
2018-08-23T11:24:19.340Z,49.40
2018-08-23T11:26:48.148Z,49.10
2018-08-23T11:29:17.257Z,48.10
2018-08-23T11:31:45.709Z,48.40
2018-08-23T11:34:14.241Z,47.90
2018-08-23T11:36:42.857Z,48.70
2018-08-23T11:42:04.294Z,48.70
2018-08-23T11:44:32.809Z,48.20
2018-08-23T11:47:01.608Z,49.10
2018-08-23T11:49:30.405Z,47.10
2018-08-23T11:51:59.200Z,46.50
2018-08-23T11:54:28.293Z,46.40
2018-08-23T11:56:56.808Z,46.00
2018-08-23T11:59:25.530Z,45.40
2018-08-23T12:01:54.121Z,46.40
2018-08-23T12:04:22.515Z,45.80
2018-08-23T12:06:55.161Z,46.50
2018-08-23T12:09:28.003Z,45.80
2018-08-23T12:11:57.591Z,46.70
2018-08-23T12:14:26.701Z,46.70
2018-08-23T12:16:55.217Z,46.80
2018-08-23T12:19:23.714Z,45.50
2018-08-23T12:21:52.304Z,46.90
2018-08-23T12:24:20.593Z,46.10
2018-08-23T12:26:49.085Z,43.30
2018-08-23T12:29:17.555Z,45.00
2018-08-23T12:34:42.746Z,45.30
2018-08-23T12:37:17.245Z,44.00
2018-08-23T12:39:51.159Z,44.10
2018-08-23T12:42:25.249Z,45.90
2018-08-23T12:44:54.210Z,45.40
2018-08-23T12:47:22.693Z,44.90
2018-08-23T12:49:51.233Z,45.20
2018-08-23T12:52:20.287Z,45.50
2018-08-23T12:54:49.378Z,43.70
2018-08-23T12:57:18.202Z,45.00
2018-08-23T12:59:46.985Z,44.30
2018-08-23T13:02:15.887Z,45.60
2018-08-23T13:04:44.593Z,44.00
2018-08-23T13:07:13.112Z,44.20
2018-08-23T13:09:41.896Z,45.90
2018-08-23T13:12:10.397Z,45.50
2018-08-23T13:14:38.915Z,45.50
2018-08-23T13:17:07.870Z,45.10
2018-08-23T13:19:36.521Z,45.80
2018-08-23T13:22:05.323Z,45.00
2018-08-23T13:24:37.881Z,45.60
2018-08-23T13:27:06.363Z,44.30
2018-08-23T13:29:35.178Z,45.30
2018-08-23T13:34:37.603Z,45.10
2018-08-23T13:37:06.497Z,44.50
2018-08-23T13:39:35.205Z,45.90
2018-08-23T13:42:04.005Z,46.20
2018-08-23T13:44:32.525Z,44.40
2018-08-23T13:47:01.107Z,44.60
2018-08-23T13:49:29.714Z,44.30
2018-08-23T13:51:58.201Z,44.30
2018-08-23T13:54:26.673Z,45.10
2018-08-23T13:56:55.169Z,46.00
2018-08-23T13:59:23.953Z,45.50
2018-08-23T14:01:52.455Z,48.50
2018-08-23T14:04:20.968Z,43.10
2018-08-23T14:06:49.484Z,45.20
2018-08-23T14:09:18.416Z,46.30
2018-08-23T14:11:47.372Z,47.30
2018-08-23T14:14:16.169Z,44.60
2018-08-23T14:16:44.964Z,43.40
2018-08-23T14:19:13.824Z,42.90
2018-08-23T14:21:42.269Z,45.30
2018-08-23T14:24:10.872Z,43.20
2018-08-23T14:26:39.473Z,43.60
2018-08-23T14:29:08.161Z,43.20
2018-08-23T14:31:37.089Z,43.40
2018-08-23T14:34:06.084Z,43.60
2018-08-23T14:39:01.181Z,43.40
2018-08-23T14:41:35.417Z,42.60
2018-08-23T14:44:05.249Z,42.40
2018-08-23T14:46:39.505Z,42.70
2018-08-23T14:49:08.838Z,42.40
2018-08-23T14:51:37.943Z,41.90
2018-08-23T14:54:12.503Z,43.70
2018-08-23T14:56:48.074Z,43.00
2018-08-23T14:59:18.446Z,43.20
2018-08-23T15:01:48.556Z,42.90
2018-08-23T15:04:18.446Z,43.00
2018-08-23T15:09:33.512Z,44.10
2018-08-23T15:12:03.067Z,43.00
2018-08-23T15:14:32.143Z,42.70
2018-08-23T15:17:01.827Z,42.60
2018-08-23T15:19:31.253Z,42.90
2018-08-23T15:24:24.044Z,41.10
2018-08-23T15:26:53.798Z,41.20
2018-08-23T15:29:23.230Z,40.60
2018-08-23T15:31:52.672Z,38.90
2018-08-23T15:34:22.858Z,36.60
2018-08-23T15:36:53.167Z,35.80
2018-08-23T15:39:22.617Z,34.10
2018-08-23T15:41:54.710Z,32.90
2018-08-23T15:44:24.695Z,30.70
2018-08-23T15:46:54.398Z,30.50
2018-08-23T15:49:23.861Z,31.20
2018-08-23T15:51:53.654Z,31.30
2018-08-23T15:54:23.432Z,30.30
2018-08-23T15:56:53.218Z,30.50
2018-08-23T15:59:22.621Z,30.30
2018-08-23T16:01:51.662Z,30.00
2018-08-23T16:04:20.827Z,29.70
2018-08-23T16:06:49.603Z,29.10
2018-08-23T16:09:18.177Z,29.70
2018-08-23T16:11:46.952Z,30.00
2018-08-23T16:14:16.928Z,31.80
2018-08-23T16:16:51.053Z,32.00
2018-08-23T16:19:25.268Z,31.50
2018-08-23T16:21:56.329Z,30.00
2018-08-23T16:24:26.024Z,29.60
2018-08-23T16:26:59.946Z,29.30
2018-08-23T16:29:28.758Z,31.00
2018-08-23T16:31:57.939Z,32.10
2018-08-23T16:34:26.974Z,31.70
2018-08-23T16:36:55.777Z,31.60
2018-08-23T16:39:24.141Z,30.80
2018-08-23T16:41:52.137Z,30.60
2018-08-23T16:44:20.177Z,31.60
2018-08-23T16:46:48.405Z,33.30
2018-08-23T16:49:16.433Z,35.50
2018-08-23T16:51:44.455Z,37.00
2018-08-23T16:54:12.557Z,38.50
2018-08-23T16:56:40.842Z,39.60
2018-08-23T16:59:08.870Z,40.40
2018-08-23T17:01:36.886Z,42.40
2018-08-23T17:04:05.020Z,43.00
2018-08-23T17:06:33.023Z,44.40
2018-08-23T17:09:01.035Z,45.60
2018-08-23T17:11:29.198Z,47.10
2018-08-23T17:13:57.230Z,47.20
2018-08-23T17:16:30.846Z,49.20
2018-08-23T17:18:59.004Z,51.20
2018-08-23T17:21:27.434Z,52.40
2018-08-23T17:23:55.453Z,51.10
2018-08-23T17:26:23.553Z,50.50
2018-08-23T17:28:51.673Z,51.20
2018-08-23T17:31:19.677Z,52.40
2018-08-23T17:33:47.683Z,55.20
2018-08-23T17:36:15.746Z,55.50
2018-08-23T17:38:44.010Z,57.40
2018-08-23T17:41:12.026Z,56.30
2018-08-23T17:43:40.085Z,56.20
2018-08-23T17:46:08.123Z,57.00
2018-08-23T17:48:36.162Z,58.60
2018-08-23T17:51:04.161Z,58.60
2018-08-23T17:53:32.205Z,60.10
2018-08-23T17:56:00.596Z,59.50
2018-08-23T17:58:28.599Z,62.30
2018-08-23T18:00:56.624Z,58.90
2018-08-23T18:03:24.634Z,63.70
2018-08-23T18:05:52.739Z,58.00
2018-08-23T18:08:27.503Z,55.80
2018-08-23T18:10:55.559Z,56.50
2018-08-23T18:13:23.598Z,57.50
2018-08-23T18:15:57.069Z,58.50
2018-08-23T18:18:25.132Z,59.10
2018-08-23T18:20:53.236Z,59.70
2018-08-23T18:23:21.233Z,61.10
2018-08-23T18:25:49.593Z,66.40
2018-08-23T18:28:20.796Z,67.60
2018-08-23T18:30:49.236Z,68.20
2018-08-23T18:33:17.364Z,68.00
2018-08-23T18:35:45.410Z,68.10
2018-08-23T18:38:13.633Z,68.00
2018-08-23T18:40:41.782Z,67.70
2018-08-23T18:43:10.002Z,66.90
2018-08-23T18:45:38.049Z,67.20
2018-08-23T18:48:06.238Z,66.20
2018-08-23T18:50:34.530Z,65.30
2018-08-23T18:53:02.517Z,65.30
2018-08-23T18:55:30.593Z,64.70
2018-08-23T18:57:58.650Z,64.70
2018-08-23T19:00:26.968Z,63.80
2018-08-23T19:02:54.965Z,64.10
2018-08-23T19:05:23.038Z,64.20
2018-08-23T19:07:51.082Z,64.90
2018-08-23T19:10:19.259Z,64.90
2018-08-23T19:12:47.275Z,64.70
2018-08-23T19:15:17.867Z,65.10
2018-08-23T19:17:46.203Z,65.10
2018-08-23T19:20:15.112Z,65.60
2018-08-23T19:22:43.118Z,65.20
2018-08-23T19:25:11.604Z,64.70
2018-08-23T19:27:39.693Z,64.70
2018-08-23T19:30:08.476Z,65.20
2018-08-23T19:32:36.773Z,64.90
2018-08-23T19:35:04.838Z,65.00
2018-08-23T19:37:32.840Z,65.50
2018-08-23T19:40:00.946Z,65.70
2018-08-23T19:42:29.023Z,66.10
2018-08-23T19:44:58.324Z,67.20
2018-08-23T19:47:31.817Z,66.80
2018-08-23T19:50:01.173Z,66.50
2018-08-23T19:52:29.224Z,66.60
2018-08-23T19:54:57.326Z,66.30
2018-08-23T19:57:25.397Z,67.20
2018-08-23T19:59:53.406Z,67.00
2018-08-23T20:02:21.460Z,67.90
2018-08-23T20:04:49.547Z,68.20
2018-08-23T20:07:17.746Z,68.60
2018-08-23T20:09:45.817Z,68.80
2018-08-23T20:12:13.915Z,69.60
2018-08-23T20:14:41.902Z,70.50
2018-08-23T20:17:11.254Z,71.30
2018-08-23T20:19:39.290Z,70.80
2018-08-23T20:22:07.709Z,70.90
2018-08-23T20:24:35.985Z,71.70
2018-08-23T20:27:04.017Z,71.50
2018-08-23T20:29:32.191Z,71.60
2018-08-23T20:32:00.188Z,72.10
2018-08-23T20:34:28.302Z,72.90
2018-08-23T20:36:56.305Z,73.40
2018-08-23T20:39:24.653Z,73.70
2018-08-23T20:41:52.512Z,74.80
2018-08-23T20:44:20.537Z,74.90
2018-08-23T20:46:48.596Z,74.90
2018-08-23T20:49:16.561Z,75.20
2018-08-23T20:51:44.786Z,75.50
2018-08-23T20:54:12.868Z,75.70
2018-08-23T20:56:40.957Z,76.40
2018-08-23T20:59:08.996Z,78.00
2018-08-23T21:01:37.013Z,79.50
2018-08-23T21:04:05.131Z,79.90
2018-08-23T21:06:33.197Z,78.50
2018-08-23T21:09:01.277Z,78.80
2018-08-23T21:11:29.286Z,80.20
2018-08-23T21:13:57.329Z,80.10
2018-08-23T21:16:25.320Z,80.50
2018-08-23T21:18:53.406Z,82.10
2018-08-23T21:21:21.493Z,82.70
2018-08-23T21:23:49.573Z,84.10
2018-08-23T21:26:17.720Z,82.90
2018-08-23T21:28:45.838Z,82.70
2018-08-23T21:31:13.893Z,83.10
2018-08-23T21:33:41.885Z,85.60
2018-08-23T21:36:09.892Z,88.10
2018-08-23T21:38:38.285Z,85.20
2018-08-23T21:41:06.294Z,86.70
2018-08-23T21:43:34.406Z,87.50
2018-08-23T21:46:02.444Z,89.40
2018-08-23T21:48:30.452Z,90.80
2018-08-23T21:50:58.493Z,91.90
2018-08-23T21:53:26.488Z,92.50
2018-08-23T21:55:54.530Z,91.70
2018-08-23T21:58:22.525Z,92.10
2018-08-23T22:00:58.903Z,92.40
2018-08-23T22:03:26.937Z,92.60
2018-08-23T22:05:54.992Z,91.60
2018-08-23T22:08:22.992Z,90.90
2018-08-23T22:10:51.470Z,90.60
2018-08-23T22:13:19.468Z,90.80
2018-08-23T22:15:48.361Z,91.40
2018-08-23T22:18:17.153Z,91.80
2018-08-23T22:20:45.160Z,92.40
2018-08-23T22:23:13.813Z,93.40
2018-08-23T22:25:42.017Z,93.20
2018-08-23T22:28:10.309Z,93.70
2018-08-23T22:30:39.237Z,92.60
2018-08-23T22:33:07.904Z,92.30
2018-08-23T22:35:35.956Z,92.40
2018-08-23T22:38:04.102Z,92.20
2018-08-23T22:40:32.096Z,92.40
2018-08-23T22:43:00.138Z,92.70
2018-08-23T22:45:28.333Z,93.20
2018-08-23T22:47:56.409Z,93.50
2018-08-23T22:50:24.631Z,93.80
2018-08-23T22:52:52.689Z,94.10
2018-08-23T22:55:20.797Z,95.10
2018-08-23T22:57:48.857Z,94.90
2018-08-23T23:00:16.968Z,95.20
2018-08-23T23:02:44.997Z,95.70
2018-08-23T23:05:13.490Z,95.90
2018-08-23T23:07:41.502Z,96.50
2018-08-23T23:10:09.502Z,96.50
2018-08-23T23:12:37.575Z,96.70
2018-08-23T23:15:37.585Z,96.60
2018-08-23T23:18:05.694Z,96.80
2018-08-23T23:20:33.774Z,97.30
2018-08-23T23:23:01.889Z,97.70
2018-08-23T23:25:29.897Z,98.10
2018-08-23T23:27:58.026Z,98.20
2018-08-23T23:30:26.063Z,98.10
2018-08-23T23:32:54.225Z,98.40
2018-08-23T23:35:22.276Z,98.70
2018-08-23T23:37:50.364Z,98.80
2018-08-23T23:40:18.380Z,98.50
2018-08-23T23:42:46.434Z,98.60
2018-08-23T23:45:14.470Z,98.50
2018-08-23T23:47:42.512Z,98.40
2018-08-23T23:50:10.505Z,98.50
2018-08-23T23:52:38.616Z,98.20
2018-08-23T23:55:06.765Z,97.50
2018-08-23T23:57:34.807Z,96.70
